KCAE/CAE METAR and TAF weather

Enter ICAO airport designator
Station Type Date Time Source
KCAE METAR 2019/10/21 21:56 UTC NOAA

KCAE 212156Z 11008KT 10SM SCT038 SCT200 24/17 A2998 RMK AO2 SLP148 T02390172


Station Type Date Time Source
KCAE Decoded METAR 2019/10/21 21:56 UTC NOAA

COLUMBIA METROPOLITAN AIRPORT , SC, United States (KCAE) 33-57N 081-07W 73M
Oct 21, 2019 - 05:56 PM EDT / 2019.10.21 2156 UTC
Wind: from the ESE (110 degrees) at 9 MPH (8 KT):0
Visibility: 10 mile(s):0
Sky conditions: partly cloudy
Temperature: 75.0 F (23.9 C)
Dew Point: 63.0 F (17.2 C)
Relative Humidity: 66%
Pressure (altimeter): 29.98 in. Hg (1015 hPa)
ob: KCAE 212156Z 11008KT 10SM SCT038 SCT200 24/17 A2998 RMK AO2 SLP148 T02390172
cycle: 22

Station Type Date Time Source
KCAE TAF 2019/10/21 21:12 UTC NOAA

TAF
AMD KCAE 212109Z 2121/2218 12008KT P6SM BKN035 BKN250
FM220600 12005KT 4SM -SHRA BR OVC008 WS015/16025KT
FM220900 13005KT 2SM RA BR OVC004 WS015/18025KT
FM221300 21010KT P6SM VCSH BKN008
FM221600 26014G24KT P6SM BKN040

Example: see airport list